Time;durP1;ratioP1;P1;durP2;ratioP2;P2;SDS_P1;SDS_P2;PMS_P1;PMS_P2;Temp;Humidity;BMP_temperature;BMP_pressure;BME280_temperature;BME280_humidity;BME280_pressure;Samples;Min_cycle;Max_cycle;Signal;HPM_P1;HPM_P2
2023/01/31 00:04:40;;;;;;;;;;;;;;;1.14;94.29;97717.73;437560;1250;109566;-38
2023/01/31 00:14:47;;;;;;;;;;;;;;;1.06;94.26;97725.38;438723;1250;107053;-39
2023/01/31 00:24:52;;;;;;;;;;;;;;;1.09;94.15;97731.20;437568;1250;97857;-38
2023/01/31 00:34:58;;;;;;;;;;;;;;;1.17;94.41;97744.11;437551;1250;110698;-40
2023/01/31 00:45:04;;;;;;;;;;;;;;;1.22;94.55;97752.72;437564;1251;107532;-40
2023/01/31 00:55:10;;;;;;;;;;;;;;;1.26;94.63;97758.31;437563;1250;96586;-39
2023/01/31 01:05:14;;;;;;;;;;;;;;;1.25;94.67;97770.52;437441;1250;106512;-39
2023/01/31 01:15:20;;;;;;;;;;;;;;;1.26;94.74;97784.91;437492;1250;97858;-39
2023/01/31 01:25:26;;;;;;;;;;;;;;;1.25;94.65;97789.27;437542;1248;109964;-40
2023/01/31 01:35:32;;;;;;;;;;;;;;;1.25;94.67;97797.69;437480;1250;107594;-40
2023/01/31 01:45:38;;;;;;;;;;;;;;;1.27;94.68;97812.81;437604;1251;97838;-40
2023/01/31 01:55:46;;;;;;;;;;;;;;;1.29;94.51;97819.02;437568;1250;107974;-38
2023/01/31 02:05:52;;;;;;;;;;;;;;;1.32;94.50;97830.14;438471;1245;97957;-38
2023/01/31 02:15:59;;;;;;;;;;;;;;;1.27;94.44;97839.08;438394;1254;109248;-38
2023/01/31 02:26:17;;;;;;;;;;;;;;;1.29;94.22;97848.36;437514;1251;108187;-39
2023/01/31 02:36:22;;;;;;;;;;;;;;;1.37;93.61;97866.15;438367;1260;97447;-39
2023/01/31 02:46:26;;;;;;;;;;;;;;;1.39;93.21;97878.19;437584;1260;109725;-39
2023/01/31 02:56:33;;;;;;;;;;;;;;;1.33;92.87;97889.17;437555;1259;108450;-39
2023/01/31 03:27:14;;;;;;;;;;;;;;;1.42;91.74;97934.73;437675;1259;97864;-40
2023/01/31 03:47:26;;;;;;;;;;;;;;;1.45;90.73;97950.23;437703;1259;96991;-38
2023/01/31 03:57:33;;;;;;;;;;;;;;;1.46;90.32;97957.17;437543;1250;107518;-40
2023/01/31 04:07:40;;;;;;;;;;;;;;;1.35;90.40;97981.02;437693;1251;97474;-40
2023/01/31 04:17:45;;;;;;;;;;;;;;;1.21;90.24;97993.45;437577;1250;111335;-39
2023/01/31 04:27:51;;;;;;;;;;;;;;;1.15;90.19;98003.70;437453;1250;108489;-39
2023/01/31 04:37:57;;;;;;;;;;;;;;;1.12;90.04;98011.34;437601;1260;97553;-39
2023/01/31 04:48:03;;;;;;;;;;;;;;;1.10;89.68;98021.65;437611;1259;109544;-40
2023/01/31 04:58:08;;;;;;;;;;;;;;;1.07;89.70;98048.58;437554;1251;108064;-41
2023/01/31 05:08:14;;;;;;;;;;;;;;;1.02;89.72;98055.77;437618;1251;98054;-40
2023/01/31 05:18:20;;;;;;;;;;;;;;;0.99;89.75;98069.92;437612;1259;107549;-39
2023/01/31 05:28:25;;;;;;;;;;;;;;;0.98;89.70;98072.27;437537;1248;96624;-40
2023/01/31 05:38:31;;;;;;;;;;;;;;;0.94;89.59;98100.80;437647;1250;109858;-41
2023/01/31 05:48:37;;;;;;;;;;;;;;;0.89;89.24;98112.74;437634;1251;108541;-40
2023/01/31 05:58:47;;;;;;;;;;;;;;;0.91;88.65;98135.52;437569;1248;96638;-40
2023/01/31 06:08:52;;;;;;;;;;;;;;;0.92;88.22;98155.71;437621;1251;109838;-40
2023/01/31 06:18:57;;;;;;;;;;;;;;;0.95;88.10;98182.94;437588;1250;107180;-41
2023/01/31 06:29:04;;;;;;;;;;;;;;;0.94;88.10;98203.89;437670;1250;96907;-40
2023/01/31 06:39:10;;;;;;;;;;;;;;;0.89;88.40;98223.48;437621;1250;110601;-40
2023/01/31 06:49:15;;;;;;;;;;;;;;;0.93;88.38;98240.23;437677;1259;107715;-40
2023/01/31 06:59:21;;;;;;;;;;;;;;;0.99;88.27;98250.84;437593;1247;97857;-41
2023/01/31 07:09:26;;;;;;;;;;;;;;;1.04;88.10;98260.84;437728;1250;110586;-41
2023/01/31 07:19:32;;;;;;;;;;;;;;;1.08;88.11;98270.95;437621;1248;108082;-40
2023/01/31 07:29:37;;;;;;;;;;;;;;;1.09;88.05;98281.48;437813;1259;97460;-41
2023/01/31 07:39:43;;;;;;;;;;;;;;;1.16;87.70;98300.49;437690;1251;110320;-40
2023/01/31 07:59:54;;;;;;;;;;;;;;;1.35;87.55;98316.30;437676;1248;97468;-39
2023/01/31 08:09:59;;;;;;;;;;;;;;;1.35;87.31;98330.88;437785;1250;111503;-41
2023/01/31 08:20:05;;;;;;;;;;;;;;;1.37;87.22;98350.23;437629;1246;107682;-40
2023/01/31 08:30:12;;;;;;;;;;;;;;;1.45;86.64;98359.70;437754;1251;97880;-41
2023/01/31 08:40:18;;;;;;;;;;;;;;;1.57;86.29;98370.84;437802;1247;110017;-40
2023/01/31 08:50:24;;;;;;;;;;;;;;;1.65;86.10;98365.95;437758;1250;108042;-39
2023/01/31 09:00:36;;;;;;;;;;;;;;;1.68;85.80;98370.30;437749;1247;97887;-41
2023/01/31 09:10:41;;;;;;;;;;;;;;;1.72;84.98;98378.16;437763;1251;109507;-42
2023/01/31 09:20:46;;;;;;;;;;;;;;;1.87;84.95;98384.05;437735;1250;97488;-40
2023/01/31 09:41:00;;;;;;;;;;;;;;;2.15;84.08;98400.69;437608;1250;97883;-40
2023/01/31 09:51:05;;;;;;;;;;;;;;;2.24;83.17;98405.37;437574;1250;399929;-40
2023/01/31 10:01:14;;;;;;;;;;;;;;;2.33;82.64;98413.46;437640;1250;97466;-39
2023/01/31 10:11:27;;;;;;;;;;;;;;;2.30;81.62;98409.41;436571;1248;97900;-39
2023/01/31 10:31:41;;;;;;;;;;;;;;;2.16;80.99;98433.25;436497;1250;97747;-39
2023/01/31 10:41:47;;;;;;;;;;;;;;;2.13;80.78;98439.34;436605;1252;107740;-40
2023/01/31 10:51:55;;;;;;;;;;;;;;;2.09;80.87;98434.91;436612;1253;97953;-41
2023/01/31 11:12:05;;;;;;;;;;;;;;;2.00;79.83;98415.92;437185;1250;108171;-40
2023/01/31 11:22:10;;;;;;;;;;;;;;;2.04;79.59;98409.64;437380;1250;97877;-40
2023/01/31 11:32:14;;;;;;;;;;;;;;;2.20;79.72;98405.16;437335;1250;97861;-40
2023/01/31 11:42:19;;;;;;;;;;;;;;;2.45;79.67;98393.77;437185;1250;108717;-41
2023/01/31 11:52:28;;;;;;;;;;;;;;;2.48;78.56;98382.65;437334;1248;97843;-39
2023/01/31 12:02:34;;;;;;;;;;;;;;;2.46;78.50;98380.66;437313;1248;97753;-41
2023/01/31 12:12:43;;;;;;;;;;;;;;;2.51;78.03;98375.85;437273;1247;109883;-42
2023/01/31 12:22:50;;;;;;;;;;;;;;;2.63;77.26;98358.27;437292;1250;107624;-40
2023/01/31 12:33:01;;;;;;;;;;;;;;;2.70;77.12;98341.52;437257;1248;97854;-38
2023/01/31 12:43:12;;;;;;;;;;;;;;;2.70;77.23;98329.84;437233;1247;97865;-39
2023/01/31 12:53:21;;;;;;;;;;;;;;;2.64;77.56;98331.35;437191;1248;109624;-42
2023/01/31 13:03:31;;;;;;;;;;;;;;;2.56;77.32;98334.58;437154;1250;108699;-38
2023/01/31 13:13:35;;;;;;;;;;;;;;;2.55;77.86;98333.24;437089;1250;97886;-39
2023/01/31 13:23:44;;;;;;;;;;;;;;;2.56;78.43;98321.17;438012;1248;110759;-40
2023/01/31 13:33:49;;;;;;;;;;;;;;;2.50;78.75;98308.11;437479;1250;108755;-40
2023/01/31 13:43:54;;;;;;;;;;;;;;;2.58;79.19;98297.02;437385;1248;108658;-39
2023/01/31 13:54:04;;;;;;;;;;;;;;;2.69;79.24;98295.20;437029;1247;97893;-39
2023/01/31 14:04:25;;;;;;;;;;;;;;;2.63;78.74;98288.61;437162;1250;109226;-39
2023/01/31 14:14:30;;;;;;;;;;;;;;;2.58;79.07;98277.42;437269;1250;108047;-40
2023/01/31 14:24:55;;;;;;;;;;;;;;;2.45;79.24;98269.80;437360;1248;97565;-41
2023/01/31 14:35:00;;;;;;;;;;;;;;;2.22;79.51;98274.70;437398;1247;110956;-40
2023/01/31 14:45:25;;;;;;;;;;;;;;;1.97;79.92;98276.61;437303;1250;97858;-40
2023/01/31 14:55:31;;;;;;;;;;;;;;;1.84;80.28;98266.98;437021;1250;97864;-40
2023/01/31 15:05:43;;;;;;;;;;;;;;;1.81;80.57;98257.16;437305;1250;98016;-40
2023/01/31 15:20:22;;;;;;;17.90;6.90;;;;;;;1.86;81.06;98231.52;422755;1294;636131;-39
2023/01/31 15:30:33;;;;;;;25.00;9.70;;;;;;;1.72;81.49;98210.04;432840;1263;584713;-41
2023/01/31 15:40:41;;;;;;;16.90;7.30;;;;;;;1.47;81.92;98203.00;434359;1255;106800;-39
2023/01/31 15:50:50;;;;;;;19.10;8.30;;;;;;;1.33;82.41;98203.02;434156;1259;107499;-40
2023/01/31 16:00:59;;;;;;;18.30;8.70;;;;;;;1.28;82.85;98211.53;434154;1259;106917;-40
2023/01/31 16:11:08;;;;;;;25.50;11.20;;;;;;;1.26;83.40;98216.84;434070;1259;95215;-39
2023/01/31 16:21:15;;;;;;;13.80;5.60;;;;;;;1.30;83.89;98216.69;433978;1259;107436;-40
2023/01/31 16:31:22;;;;;;;12.70;7.80;;;;;;;1.35;84.26;98217.30;434105;1259;107853;-39
2023/01/31 16:41:40;;;;;;;12.60;7.50;;;;;;;1.38;84.54;98212.25;434233;1255;95145;-38
2023/01/31 16:51:48;;;;;;;14.70;7.10;;;;;;;1.41;84.83;98210.71;434101;1260;95180;-39
2023/01/31 17:01:55;;;;;;;15.20;8.80;;;;;;;1.36;84.99;98204.89;434181;1256;108897;-39
2023/01/31 17:12:05;;;;;;;17.80;9.80;;;;;;;1.16;85.00;98197.14;434228;1256;108128;-39
2023/01/31 17:32:21;;;;;;;21.00;13.30;;;;;;;0.93;85.89;98179.48;435412;1255;108587;-39
2023/01/31 17:42:28;;;;;;;15.10;8.20;;;;;;;0.89;86.37;98160.16;435182;1255;108215;-38
2023/01/31 17:52:37;;;;;;;13.40;7.20;;;;;;;0.87;86.73;98148.17;435150;1255;96348;-39
2023/01/31 18:02:45;;;;;;;15.70;6.40;;;;;;;0.87;86.76;98140.31;435164;1253;108432;-38
2023/01/31 18:12:53;;;;;;;9.40;5.70;;;;;;;0.88;87.22;98121.27;435233;1256;107634;-39
2023/01/31 18:23:00;;;;;;;13.20;9.40;;;;;;;0.84;87.66;98107.70;435266;1255;96105;-38
2023/01/31 18:33:08;;;;;;;10.90;7.10;;;;;;;0.73;88.00;98088.34;435164;1256;108454;-38
2023/01/31 18:43:15;;;;;;;15.80;7.40;;;;;;;0.76;88.21;98065.44;435182;1255;108393;-39
2023/01/31 18:53:21;;;;;;;10.50;6.80;;;;;;;0.82;88.23;98055.61;435257;1256;95352;-38
2023/01/31 19:03:30;;;;;;;17.90;9.00;;;;;;;0.87;88.38;98044.22;435299;1255;109238;-38
2023/01/31 19:13:38;;;;;;;25.60;15.20;;;;;;;0.90;88.64;98033.04;435296;1253;105836;-38
2023/01/31 19:23:46;;;;;;;18.20;8.70;;;;;;;0.95;88.94;98009.98;435425;1255;96017;-38
2023/01/31 19:33:55;;;;;;;16.20;8.10;;;;;;;0.99;89.09;97988.30;435293;1255;108168;-38
2023/01/31 19:44:03;;;;;;;19.30;9.00;;;;;;;1.00;89.45;97983.90;435213;1255;107933;-38
2023/01/31 19:54:15;;;;;;;11.00;7.10;;;;;;;0.95;89.82;97974.77;435305;1256;96127;-38
2023/01/31 20:04:22;;;;;;;11.30;5.80;;;;;;;0.93;90.02;97962.06;435330;1251;95455;-39
2023/01/31 20:14:28;;;;;;;12.20;7.10;;;;;;;0.93;89.81;97950.42;435187;1255;108874;-39
2023/01/31 20:24:35;;;;;;;10.20;6.30;;;;;;;0.92;90.39;97941.59;435110;1251;108191;-39
2023/01/31 20:34:43;;;;;;;17.50;8.00;;;;;;;0.87;90.22;97936.59;435284;1253;96004;-39
2023/01/31 20:44:50;;;;;;;13.80;6.80;;;;;;;0.83;90.61;97926.30;435302;1256;108554;-39
2023/01/31 20:54:57;;;;;;;16.50;7.10;;;;;;;0.87;90.52;97921.13;435212;1251;107899;-38
2023/01/31 21:05:05;;;;;;;20.90;10.40;;;;;;;0.86;90.76;97913.35;435321;1255;96119;-39
2023/01/31 21:15:13;;;;;;;22.20;12.60;;;;;;;0.82;90.83;97889.86;435255;1256;109615;-39
2023/01/31 21:25:21;;;;;;;17.30;10.50;;;;;;;0.82;90.77;97890.73;435208;1255;108076;-39
2023/01/31 21:35:29;;;;;;;17.80;9.10;;;;;;;0.88;90.82;97881.33;435266;1256;95413;-38
2023/01/31 21:55:59;;;;;;;10.80;6.90;;;;;;;0.94;91.43;97863.61;435257;1251;108550;-39
2023/01/31 22:06:09;;;;;;;13.60;8.10;;;;;;;1.02;91.62;97859.52;435323;1255;96401;-39
2023/01/31 22:16:16;;;;;;;;;;;;;;;1.12;91.70;97855.51;435319;1257;107796;-38
2023/01/31 22:26:22;;;;;;;10.90;6.20;;;;;;;1.19;92.09;97861.58;435156;1255;96524;-39
2023/01/31 22:36:30;;;;;;;11.40;6.70;;;;;;;1.28;92.26;97855.08;435257;1253;108569;-39
2023/01/31 22:46:37;;;;;;;10.40;6.00;;;;;;;1.36;92.52;97840.54;435184;1251;108234;-38
2023/01/31 22:56:44;;;;;;;6.90;4.50;;;;;;;1.40;92.61;97831.79;435308;1252;96108;-39
2023/01/31 23:06:51;;;;;;;10.10;5.70;;;;;;;1.47;92.65;97822.15;435373;1255;108986;-39
2023/01/31 23:27:21;;;;;;;5.70;3.60;;;;;;;1.65;93.07;97808.98;435267;1255;95679;-39
2023/01/31 23:37:28;;;;;;;6.40;3.60;;;;;;;1.69;93.01;97796.23;435198;1256;107410;-39
2023/01/31 23:47:34;;;;;;;6.80;4.20;;;;;;;1.74;93.24;97782.60;435293;1255;95619;-40
2023/01/31 23:57:39;;;;;;;7.00;3.60;;;;;;;1.79;93.38;97758.16;435147;1254;108144;-39
